Time;durP1;ratioP1;P1;durP2;ratioP2;P2;SDS_P1;SDS_P2;PMS_P1;PMS_P2;Temp;Humidity;BMP_temperature;BMP_pressure;BME280_temperature;BME280_humidity;BME280_pressure;Samples;Min_cycle;Max_cycle;Signal;HPM_P1;HPM_P2
2021/09/10 00:00:23;;;;;;;22.27;11.23;;;21.20;99.90;;;;;;5037951;28;20084;-80
2021/09/10 00:02:50;;;;;;;13.35;11.25;;;21.30;99.90;;;;;;5037945;28;20053;-81
2021/09/10 00:05:19;;;;;;;14.73;11.23;;;21.30;99.90;;;;;;5038205;28;20129;-80
2021/09/10 00:07:46;;;;;;;13.27;11.32;;;21.20;99.90;;;;;;5037727;28;20053;-80
2021/09/10 00:10:13;;;;;;;15.20;11.02;;;21.30;99.90;;;;;;5040486;28;20049;-80
2021/09/10 00:12:49;;;;;;;13.52;10.45;;;21.30;99.90;;;;;;5040927;28;20499;-80
2021/09/10 00:15:17;;;;;;;12.30;10.35;;;21.30;99.90;;;;;;5041435;28;20053;-80
2021/09/10 00:17:44;;;;;;;13.82;10.90;;;21.20;99.90;;;;;;5042421;28;20111;-79
2021/09/10 00:20:22;;;;;;;11.55;10.00;;;21.20;99.90;;;;;;5042020;28;20534;-80
2021/09/10 00:23:00;;;;;;;11.20;9.90;;;21.20;99.90;;;;;;5041465;28;20053;-80
2021/09/10 00:25:35;;;;;;;12.15;10.77;;;21.20;99.90;;;;;;5042117;28;20558;-80
2021/09/10 00:28:26;;;;;;;11.10;9.40;;;21.10;99.90;;;;;;5041881;28;20053;-80
2021/09/10 00:31:03;;;;;;;14.45;10.63;;;21.10;99.90;;;;;;5033194;28;20049;-79
2021/09/10 00:33:40;;;;;;;12.20;9.80;;;21.10;99.90;;;;;;5041618;28;20045;-80
2021/09/10 00:36:17;;;;;;;15.20;10.32;;;21.10;99.90;;;;;;5041722;28;20053;-79
2021/09/10 00:41:44;;;;;;;14.70;10.80;;;21.10;99.90;;;;;;5037652;28;20092;-78
2021/09/10 00:44:11;;;;;;;11.02;9.93;;;21.00;99.90;;;;;;5038374;28;20048;-79
2021/09/10 00:46:52;;;;;;;11.80;10.60;;;21.00;99.90;;;;;;5038886;28;20057;-80
2021/09/10 00:52:28;;;;;;;11.35;10.13;;;21.10;99.90;;;;;;5035755;28;20124;-81
2021/09/10 00:54:57;;;;;;;11.02;9.82;;;21.10;99.90;;;;;;5038699;28;20598;-80
2021/09/10 00:57:24;;;;;;;12.63;10.88;;;21.10;99.90;;;;;;5038803;28;20052;-79
2021/09/10 00:59:53;;;;;;;14.60;10.68;;;21.00;99.90;;;;;;5039247;28;20570;-81
2021/09/10 01:02:41;;;;;;;15.38;11.07;;;21.00;99.90;;;;;;5039833;28;20049;-80
2021/09/10 01:05:09;;;;;;;12.40;10.68;;;20.90;99.90;;;;;;5040322;28;20049;-80
2021/09/10 01:07:38;;;;;;;17.92;11.40;;;20.90;99.90;;;;;;5039944;28;20580;-80
2021/09/10 01:10:06;;;;;;;15.88;10.98;;;20.90;99.90;;;;;;5039829;28;20119;-80
2021/09/10 01:12:33;;;;;;;12.45;10.52;;;21.00;99.90;;;;;;5039422;28;20053;-80
2021/09/10 01:15:02;;;;;;;13.88;10.48;;;21.00;99.90;;;;;;5039102;28;20155;-80
2021/09/10 01:17:29;;;;;;;12.50;10.27;;;20.90;99.90;;;;;;5040331;28;20144;-80
2021/09/10 01:19:56;;;;;;;13.68;10.48;;;20.90;99.90;;;;;;5039834;28;20053;-79
2021/09/10 01:22:26;;;;;;;11.95;10.27;;;20.90;99.90;;;;;;5040004;28;20081;-80
2021/09/10 01:25:11;;;;;;;12.60;11.30;;;20.90;99.90;;;;;;5040460;28;20067;-80
2021/09/10 01:30:41;;;;;;;11.95;10.75;;;20.80;99.90;;;;;;5034018;28;20376;-79
2021/09/10 01:36:24;;;;;;;13.98;10.63;;;20.80;99.90;;;;;;5014888;28;20049;-80
2021/09/10 01:38:51;;;;;;;14.57;10.40;;;20.80;99.90;;;;;;5038728;28;20076;-79
2021/09/10 01:41:19;;;;;;;12.20;10.63;;;20.70;99.90;;;;;;5039974;28;20046;-78
2021/09/10 01:43:46;;;;;;;16.48;11.40;;;20.60;99.90;;;;;;5039912;28;20054;-80
2021/09/10 01:46:13;;;;;;;14.68;11.63;;;20.50;99.90;;;;;;5039534;28;20568;-80
2021/09/10 01:48:40;;;;;;;13.20;11.35;;;20.50;99.90;;;;;;5039119;28;20545;-79
2021/09/10 01:51:07;;;;;;;14.55;11.77;;;20.40;99.90;;;;;;5039353;28;20606;-80
2021/09/10 01:53:37;;;;;;;15.32;11.65;;;20.40;99.90;;;;;;5038917;28;20108;-79
2021/09/10 01:56:07;;;;;;;15.93;12.60;;;20.30;99.90;;;;;;5039603;28;20075;-80
2021/09/10 01:58:36;;;;;;;13.93;11.80;;;20.30;99.90;;;;;;5039523;28;20053;-79
2021/09/10 02:01:03;;;;;;;17.10;13.27;;;20.20;99.90;;;;;;5038399;28;20049;-81
2021/09/10 02:03:30;;;;;;;14.85;12.52;;;20.20;99.90;;;;;;5039461;28;20057;-80
2021/09/10 02:05:57;;;;;;;17.48;12.43;;;20.20;99.90;;;;;;5039792;28;20049;-80
2021/09/10 02:08:27;;;;;;;17.60;12.27;;;20.20;99.90;;;;;;5039308;28;20057;-81
2021/09/10 02:10:57;;;;;;;15.02;12.88;;;20.20;99.90;;;;;;5039184;28;20057;-80
2021/09/10 02:13:24;;;;;;;15.70;13.05;;;20.30;99.90;;;;;;5039334;28;20045;-80
2021/09/10 02:15:55;;;;;;;16.60;12.90;;;20.30;99.90;;;;;;5040484;28;20060;-81
2021/09/10 02:18:24;;;;;;;14.88;12.55;;;20.30;99.90;;;;;;5040657;28;20053;-80
2021/09/10 02:20:51;;;;;;;17.25;12.55;;;20.40;99.90;;;;;;5039788;28;20128;-81
2021/09/10 02:23:18;;;;;;;15.73;12.93;;;20.30;99.90;;;;;;5040117;28;20081;-80
2021/09/10 02:25:46;;;;;;;18.30;13.07;;;20.40;99.90;;;;;;5039941;28;20064;-81
2021/09/10 02:28:13;;;;;;;15.45;12.48;;;20.40;99.90;;;;;;5040453;28;20075;-80
2021/09/10 02:30:39;;;;;;;15.68;12.35;;;20.40;99.90;;;;;;5038313;28;20250;-80
2021/09/10 02:33:08;;;;;;;15.65;12.07;;;20.40;99.90;;;;;;5037342;28;20132;-80
2021/09/10 02:35:35;;;;;;;14.50;12.35;;;20.50;99.90;;;;;;5037971;28;20049;-79
2021/09/10 02:38:01;;;;;;;16.20;12.68;;;20.50;99.90;;;;;;5041899;28;20093;-76
2021/09/10 02:40:28;;;;;;;14.82;12.18;;;20.50;99.90;;;;;;5040670;28;20087;-80
2021/09/10 02:42:55;;;;;;;19.98;12.80;;;20.50;99.90;;;;;;5038191;28;20115;-80
2021/09/10 02:45:22;;;;;;;17.00;12.07;;;20.50;99.90;;;;;;5037493;28;20463;-79
2021/09/10 02:47:49;;;;;;;16.83;12.18;;;20.50;99.90;;;;;;5037877;28;20063;-79
2021/09/10 02:50:17;;;;;;;16.33;12.43;;;20.50;99.90;;;;;;5038938;28;20064;-79
2021/09/10 02:52:44;;;;;;;16.50;12.30;;;20.40;99.90;;;;;;5038113;28;20080;-79
2021/09/10 02:55:12;;;;;;;15.82;12.63;;;20.30;99.90;;;;;;5038677;28;20132;-78
2021/09/10 02:57:39;;;;;;;14.38;12.13;;;20.40;99.90;;;;;;5039153;28;20060;-79
2021/09/10 03:00:08;;;;;;;19.33;12.90;;;20.30;99.90;;;;;;5039081;28;20092;-80
2021/09/10 03:02:35;;;;;;;17.60;12.63;;;20.30;99.90;;;;;;5037899;28;20128;-80
2021/09/10 03:05:02;;;;;;;14.43;12.52;;;20.30;99.90;;;;;;5037700;28;20109;-80
2021/09/10 03:07:30;;;;;;;17.52;12.88;;;20.30;99.90;;;;;;5037479;28;20511;-80
2021/09/10 03:09:58;;;;;;;16.10;12.38;;;20.20;99.90;;;;;;5037692;28;20081;-79
2021/09/10 03:12:25;;;;;;;15.65;12.90;;;20.20;99.90;;;;;;5037962;28;20474;-80
2021/09/10 03:14:52;;;;;;;16.90;13.75;;;20.20;99.90;;;;;;5037338;28;20045;-80
2021/09/10 03:17:19;;;;;;;18.35;13.02;;;20.20;99.90;;;;;;5038446;28;20049;-79
2021/09/10 03:19:46;;;;;;;17.25;12.82;;;20.20;99.90;;;;;;5038123;28;20519;-77
2021/09/10 03:22:13;;;;;;;14.20;12.63;;;20.20;99.90;;;;;;5038084;28;20088;-78
2021/09/10 03:24:41;;;;;;;15.82;13.55;;;20.20;99.90;;;;;;5037212;28;20435;-79
2021/09/10 03:27:08;;;;;;;15.63;12.95;;;20.20;99.90;;;;;;5037786;28;20053;-77
2021/09/10 03:29:35;;;;;;;18.48;12.88;;;20.20;99.90;;;;;;5038197;28;20137;-77
2021/09/10 03:32:02;;;;;;;16.20;13.40;;;20.20;99.90;;;;;;5037783;28;20186;-78
2021/09/10 03:34:29;;;;;;;15.68;13.88;;;20.20;99.90;;;;;;5037986;28;20479;-79
2021/09/10 03:36:56;;;;;;;16.58;13.57;;;20.10;99.90;;;;;;5037447;28;20049;-78
2021/09/10 03:39:23;;;;;;;19.30;14.05;;;20.00;99.90;;;;;;5037976;28;20140;-79
2021/09/10 03:41:51;;;;;;;22.38;13.82;;;20.00;99.90;;;;;;5039146;28;20053;-78
2021/09/10 03:44:18;;;;;;;18.23;14.15;;;19.90;99.90;;;;;;5042255;28;20053;-78
2021/09/10 03:46:45;;;;;;;16.80;13.90;;;19.90;99.90;;;;;;5043106;28;20104;-78
2021/09/10 03:49:11;;;;;;;15.93;13.57;;;19.90;99.90;;;;;;5041872;28;20049;-79
2021/09/10 03:51:38;;;;;;;16.15;13.98;;;19.90;99.90;;;;;;5041915;28;20092;-78
2021/09/10 03:54:05;;;;;;;20.95;13.57;;;19.90;99.90;;;;;;5042449;28;20526;-79
2021/09/10 03:56:32;;;;;;;16.77;13.20;;;19.90;99.90;;;;;;5042156;28;20089;-79
2021/09/10 03:59:00;;;;;;;18.45;13.30;;;19.90;99.90;;;;;;5041791;28;20071;-79
2021/09/10 04:01:27;;;;;;;15.80;13.57;;;19.90;99.90;;;;;;5041786;28;20050;-79
2021/09/10 04:03:54;;;;;;;18.25;13.95;;;19.80;99.90;;;;;;5042462;28;20041;-79
2021/09/10 04:06:21;;;;;;;18.73;14.68;;;19.80;99.90;;;;;;5042762;28;20080;-78
2021/09/10 04:08:48;;;;;;;16.08;14.15;;;19.80;99.90;;;;;;5042191;28;20050;-79
2021/09/10 04:11:15;;;;;;;15.98;13.75;;;19.80;99.90;;;;;;5042141;28;20056;-79
2021/09/10 04:13:43;;;;;;;15.88;13.25;;;19.80;99.90;;;;;;5042782;28;20069;-79
2021/09/10 04:16:11;;;;;;;16.90;13.80;;;19.80;99.90;;;;;;5041673;28;20056;-80
2021/09/10 04:18:38;;;;;;;16.60;13.95;;;19.80;99.90;;;;;;5040077;28;20132;-80
2021/09/10 04:21:05;;;;;;;17.30;13.90;;;19.80;99.90;;;;;;5040112;28;20081;-81
2021/09/10 04:23:32;;;;;;;15.63;13.82;;;19.80;99.90;;;;;;5040138;28;20491;-80
2021/09/10 04:25:58;;;;;;;16.30;14.60;;;19.70;99.90;;;;;;5041057;28;20545;-79
2021/09/10 04:28:25;;;;;;;20.00;14.82;;;19.70;99.90;;;;;;5041270;28;20049;-78
2021/09/10 04:30:52;;;;;;;16.48;14.73;;;19.60;99.90;;;;;;5040668;28;20060;-79
2021/09/10 04:33:22;;;;;;;17.92;14.95;;;19.50;99.90;;;;;;5040583;28;20045;-81
2021/09/10 04:35:49;;;;;;;17.88;14.65;;;19.50;99.90;;;;;;5040671;28;20049;-79
2021/09/10 04:38:16;;;;;;;15.52;13.77;;;19.60;99.90;;;;;;5039820;28;20476;-79
2021/09/10 04:40:43;;;;;;;16.85;14.20;;;19.60;99.90;;;;;;5039817;28;20096;-80
2021/09/10 04:43:11;;;;;;;17.95;15.20;;;19.70;99.90;;;;;;5040546;28;20136;-79
2021/09/10 04:45:38;;;;;;;18.30;14.75;;;19.70;99.90;;;;;;5040281;28;20107;-80
2021/09/10 04:48:05;;;;;;;17.60;14.80;;;19.80;99.90;;;;;;5039667;28;20578;-79
2021/09/10 04:50:33;;;;;;;17.92;14.90;;;19.70;99.90;;;;;;5039139;28;20484;-80
2021/09/10 04:53:00;;;;;;;16.27;14.57;;;19.80;99.90;;;;;;5055999;23;20136;-76
2021/09/10 04:55:27;;;;;;;19.20;14.45;;;19.80;99.90;;;;;;5045397;28;20414;-79
2021/09/10 04:57:53;;;;;;;17.63;15.30;;;19.80;99.90;;;;;;5054648;28;20056;-77
2021/09/10 05:00:20;;;;;;;17.98;15.13;;;19.80;99.90;;;;;;5057151;28;20131;-78
2021/09/10 05:02:47;;;;;;;18.63;15.00;;;19.70;99.90;;;;;;5058952;28;20127;-79
2021/09/10 05:05:14;;;;;;;16.75;14.95;;;19.70;99.90;;;;;;5055587;28;20160;-78
2021/09/10 05:07:45;;;;;;;17.77;15.93;;;19.70;99.90;;;;;;5054491;28;20045;-79
2021/09/10 05:10:12;;;;;;;20.35;17.00;;;19.70;99.90;;;;;;5056122;28;20477;-79
2021/09/10 05:12:39;;;;;;;18.45;16.58;;;19.60;99.90;;;;;;5054782;28;20079;-78
2021/09/10 05:15:08;;;;;;;21.25;16.55;;;19.50;99.90;;;;;;5054494;28;20141;-79
2021/09/10 05:17:35;;;;;;;21.23;16.73;;;19.50;99.90;;;;;;5053654;28;20140;-78
2021/09/10 05:20:03;;;;;;;18.05;16.25;;;19.40;99.90;;;;;;5055135;28;20072;-78
2021/09/10 05:22:33;;;;;;;21.52;16.25;;;19.40;99.90;;;;;;5049963;28;20068;-81
2021/09/10 05:25:02;;;;;;;20.35;16.30;;;19.40;99.90;;;;;;5014370;28;20046;-79
2021/09/10 05:27:48;;;;;;;20.55;15.80;;;19.50;99.90;;;;;;5017717;28;20472;-78
2021/09/10 05:30:31;;;;;;;17.27;15.57;;;19.40;99.90;;;;;;5017226;28;20050;-79
2021/09/10 05:33:04;;;;;;;18.08;15.48;;;19.50;99.90;;;;;;5018686;28;20054;-77
2021/09/10 05:35:31;;;;;;;17.75;15.48;;;19.40;99.90;;;;;;5012809;28;20145;-80
2021/09/10 05:37:58;;;;;;;18.17;14.90;;;19.40;99.90;;;;;;5022762;28;20053;-77
2021/09/10 05:40:26;;;;;;;16.23;14.50;;;19.40;99.90;;;;;;5041061;28;20045;-78
2021/09/10 05:42:53;;;;;;;17.05;14.43;;;19.30;99.90;;;;;;5038118;28;20056;-77
2021/09/10 05:45:20;;;;;;;15.45;13.68;;;19.30;99.90;;;;;;5053146;28;20073;-78
2021/09/10 05:47:47;;;;;;;16.38;13.90;;;19.40;99.90;;;;;;5052864;28;20061;-78
2021/09/10 05:50:14;;;;;;;17.52;13.98;;;19.40;99.90;;;;;;5033212;28;20092;-80
2021/09/10 05:52:40;;;;;;;16.70;13.95;;;19.50;99.90;;;;;;5031993;28;20050;-77
2021/09/10 05:55:08;;;;;;;17.45;13.90;;;19.60;99.90;;;;;;5032003;28;20045;-77
2021/09/10 05:57:36;;;;;;;19.92;13.85;;;19.60;99.90;;;;;;5033703;28;20132;-79
2021/09/10 06:00:04;;;;;;;18.88;14.25;;;19.70;99.90;;;;;;5031503;28;20049;-76
2021/09/10 06:02:31;;;;;;;15.82;13.75;;;19.70;99.90;;;;;;5032674;28;20132;-77
2021/09/10 06:04:58;;;;;;;17.20;13.23;;;19.80;99.90;;;;;;5032466;28;20463;-76
2021/09/10 06:07:25;;;;;;;13.15;11.77;;;19.90;99.90;;;;;;5031442;28;20045;-78
2021/09/10 06:09:51;;;;;;;15.25;13.55;;;20.00;99.90;;;;;;5032101;28;20077;-75
2021/09/10 06:12:18;;;;;;;16.05;13.30;;;20.10;99.90;;;;;;5032154;28;20566;-75
2021/09/10 06:14:47;;;;;;;15.18;13.32;;;20.10;99.90;;;;;;5032188;28;20487;-76
2021/09/10 06:17:13;;;;;;;16.40;13.65;;;20.20;99.90;;;;;;5030953;28;20128;-76
2021/09/10 06:19:40;;;;;;;13.77;12.38;;;20.20;99.90;;;;;;5031730;28;20052;-76
2021/09/10 06:22:07;;;;;;;15.95;12.05;;;20.40;99.90;;;;;;5032153;28;20096;-76
2021/09/10 06:24:34;;;;;;;13.38;11.93;;;20.90;99.90;;;;;;5032054;28;20049;-77
2021/09/10 06:27:01;;;;;;;15.40;11.07;;;21.50;99.90;;;;;;5032010;28;20136;-77
2021/09/10 06:29:28;;;;;;;12.50;11.00;;;21.90;99.90;;;;;;5031649;28;20056;-75
2021/09/10 06:31:56;;;;;;;15.15;11.40;;;22.20;99.90;;;;;;5032013;28;20056;-76
2021/09/10 06:34:25;;;;;;;17.42;11.77;;;22.30;99.90;;;;;;5031607;28;20522;-76
2021/09/10 06:36:52;;;;;;;15.45;11.90;;;22.40;99.90;;;;;;5031967;28;20085;-76
2021/09/10 06:39:19;;;;;;;13.02;11.73;;;22.40;99.90;;;;;;5031886;28;20103;-76
2021/09/10 06:41:46;;;;;;;14.73;11.07;;;22.40;99.90;;;;;;5031155;28;20577;-77
2021/09/10 06:44:13;;;;;;;14.25;11.18;;;22.60;99.90;;;;;;5031778;28;20053;-76
2021/09/10 06:46:40;;;;;;;14.27;10.63;;;22.60;99.90;;;;;;5031966;28;20563;-75
2021/09/10 06:49:08;;;;;;;13.43;9.70;;;22.80;99.90;;;;;;5031540;28;20049;-76
2021/09/10 06:51:35;;;;;;;11.65;9.10;;;23.30;99.90;;;;;;5031731;28;20057;-76
2021/09/10 06:54:02;;;;;;;14.25;9.98;;;23.70;99.90;;;;;;5031384;28;20099;-77
2021/09/10 06:56:29;;;;;;;15.68;10.80;;;23.80;99.90;;;;;;5030973;28;20055;-76
2021/09/10 06:58:56;;;;;;;15.77;9.32;;;23.80;99.90;;;;;;5031279;28;20140;-76
2021/09/10 07:01:23;;;;;;;13.43;9.95;;;23.70;99.90;;;;;;5031281;28;20132;-76
2021/09/10 07:03:50;;;;;;;11.80;9.68;;;23.50;99.90;;;;;;5031054;28;20136;-77
2021/09/10 07:06:18;;;;;;;12.40;9.27;;;23.30;99.90;;;;;;5031054;28;20056;-75
2021/09/10 07:08:45;;;;;;;15.10;9.80;;;23.20;99.90;;;;;;5031181;28;20402;-76
2021/09/10 07:11:12;;;;;;;13.05;9.65;;;23.10;99.90;;;;;;5030801;28;20081;-76
2021/09/10 07:13:38;;;;;;;14.13;9.30;;;23.10;99.90;;;;;;5031075;28;20085;-76
2021/09/10 07:16:06;;;;;;;16.42;10.43;;;23.10;99.90;;;;;;5031060;28;20056;-76
2021/09/10 07:18:33;;;;;;;13.07;9.90;;;23.10;99.90;;;;;;5031324;28;20091;-76
2021/09/10 07:21:03;;;;;;;12.40;9.38;;;23.20;99.90;;;;;;5031511;28;20485;-77
2021/09/10 07:23:32;;;;;;;12.27;8.95;;;23.30;99.90;;;;;;5030906;28;20610;-76
2021/09/10 07:26:03;;;;;;;10.82;7.75;;;23.40;99.90;;;;;;5031139;28;20049;-76
2021/09/10 07:28:31;;;;;;;8.98;7.40;;;23.40;99.90;;;;;;5031228;28;20052;-74
2021/09/10 07:30:58;;;;;;;10.43;7.45;;;23.40;99.90;;;;;;5030381;28;20101;-75
2021/09/10 07:33:25;;;;;;;9.55;7.72;;;23.40;99.90;;;;;;5031127;28;20081;-76
2021/09/10 07:35:53;;;;;;;7.97;6.88;;;23.40;99.90;;;;;;5030685;28;20045;-76
2021/09/10 07:38:20;;;;;;;10.30;7.10;;;23.30;99.90;;;;;;5030931;28;20045;-76
2021/09/10 07:40:48;;;;;;;9.13;6.60;;;23.20;99.90;;;;;;5030950;28;20543;-76
2021/09/10 07:43:15;;;;;;;7.97;6.80;;;23.10;99.90;;;;;;5030990;28;20456;-76
2021/09/10 07:45:42;;;;;;;11.25;7.10;;;23.00;99.90;;;;;;5037256;28;20037;-76
2021/09/10 07:48:08;;;;;;;9.15;6.68;;;23.00;99.90;;;;;;5035898;28;20054;-76
2021/09/10 07:50:35;;;;;;;15.80;6.60;;;22.90;99.90;;;;;;5040165;28;20055;-76
2021/09/10 07:53:03;;;;;;;13.35;6.90;;;22.90;99.90;;;;;;5039665;28;20049;-76
2021/09/10 07:55:30;;;;;;;13.05;6.65;;;22.80;99.90;;;;;;5042619;28;20137;-76
2021/09/10 07:57:58;;;;;;;14.57;7.25;;;22.80;99.90;;;;;;5050780;28;20084;-76
2021/09/10 08:00:27;;;;;;;9.85;6.50;;;22.80;99.90;;;;;;5041357;28;20490;-76
2021/09/10 08:02:54;;;;;;;9.68;6.53;;;22.90;99.90;;;;;;5041270;28;20061;-75
2021/09/10 08:05:21;;;;;;;10.32;6.53;;;23.00;99.90;;;;;;5038283;28;20108;-75
2021/09/10 08:07:48;;;;;;;8.63;6.57;;;23.00;99.90;;;;;;5036803;28;20124;-75
2021/09/10 08:10:16;;;;;;;9.20;6.40;;;23.10;99.90;;;;;;5028528;28;20613;-75
2021/09/10 08:12:42;;;;;;;12.20;6.90;;;23.00;99.90;;;;;;5040362;28;20045;-76
2021/09/10 08:15:12;;;;;;;9.85;6.68;;;23.00;99.90;;;;;;5030397;28;20051;-76
2021/09/10 08:17:39;;;;;;;12.52;6.40;;;22.90;99.90;;;;;;5038647;28;20069;-76
2021/09/10 08:20:09;;;;;;;7.43;6.40;;;23.10;99.90;;;;;;5043660;28;20523;-75
2021/09/10 08:22:37;;;;;;;11.02;6.32;;;23.10;99.90;;;;;;5038674;28;20510;-76
2021/09/10 08:25:05;;;;;;;8.07;6.20;;;23.20;99.90;;;;;;5038192;28;20052;-75
2021/09/10 08:27:32;;;;;;;8.95;6.30;;;23.30;99.90;;;;;;5028603;28;20133;-76
2021/09/10 08:30:00;;;;;;;8.23;5.93;;;23.50;99.90;;;;;;5030712;28;20454;-76
2021/09/10 08:32:28;;;;;;;8.55;6.05;;;23.80;99.90;;;;;;5037465;28;20131;-74
2021/09/10 08:34:55;;;;;;;11.27;6.15;;;24.10;99.90;;;;;;5053797;28;20052;-75
2021/09/10 08:37:26;;;;;;;7.88;6.13;;;24.20;99.90;;;;;;5053832;28;20512;-76
2021/09/10 08:39:53;;;;;;;10.95;6.00;;;24.30;99.90;;;;;;5053628;28;20059;-75
2021/09/10 08:42:19;;;;;;;9.85;5.50;;;24.30;99.90;;;;;;5053741;28;20132;-75
2021/09/10 08:44:46;;;;;;;10.32;5.60;;;24.40;99.90;;;;;;5054102;28;20135;-76
2021/09/10 08:47:14;;;;;;;10.48;5.43;;;24.70;99.90;;;;;;5054309;28;20132;-76
2021/09/10 08:49:45;;;;;;;8.82;5.85;;;25.30;99.90;;;;;;5053739;28;20132;-76
2021/09/10 08:52:12;;;;;;;7.85;5.70;;;25.70;99.90;;;;;;5053721;28;20060;-75
2021/09/10 08:54:39;;;;;;;8.32;5.60;;;25.80;99.90;;;;;;5054007;28;20056;-75
2021/09/10 08:57:06;;;;;;;5.97;5.20;;;25.80;99.90;;;;;;5053789;28;20051;-76
2021/09/10 08:59:33;;;;;;;10.27;5.45;;;25.70;99.90;;;;;;5053645;28;20080;-77
2021/09/10 09:02:01;;;;;;;6.63;5.38;;;25.70;99.90;;;;;;5053394;28;20045;-77
2021/09/10 09:04:31;;;;;;;6.47;5.72;;;25.60;99.90;;;;;;5053607;28;20095;-77
2021/09/10 09:07:01;;;;;;;10.38;5.30;;;25.70;99.90;;;;;;5054719;28;20617;-78
2021/09/10 09:09:39;;;;;;;9.30;5.32;;;25.70;99.90;;;;;;5054163;28;20053;-77
2021/09/10 09:12:17;;;;;;;9.23;5.32;;;25.80;99.90;;;;;;5053867;28;20064;-77
2021/09/10 09:14:52;;;;;;;7.82;5.18;;;25.70;99.90;;;;;;5056250;28;20545;-77
2021/09/10 09:17:24;;;;;;;6.78;5.45;;;25.70;99.90;;;;;;5053594;28;20041;-77
2021/09/10 09:20:25;;;;;;;6.82;5.70;;;25.60;99.90;;;;;;5053393;28;20140;-78
2021/09/10 09:26:43;;;;;;;9.43;5.38;;;25.50;99.90;;;;;;4943972;28;20448;-76
2021/09/10 09:29:30;;;;;;;8.48;5.80;;;25.40;99.90;;;;;;4990816;28;20059;-76
2021/09/10 09:31:59;;;;;;;10.25;5.60;;;25.40;99.90;;;;;;5033667;28;20050;-79
2021/09/10 09:34:46;;;;;;;9.38;5.55;;;25.30;99.90;;;;;;5033577;28;20053;-76
2021/09/10 09:37:16;;;;;;;7.32;5.18;;;25.20;99.90;;;;;;5033163;28;20049;-77
2021/09/10 09:39:54;;;;;;;8.55;5.55;;;25.10;99.90;;;;;;5033902;28;20057;-78
2021/09/10 09:42:29;;;;;;;7.72;5.50;;;24.90;99.90;;;;;;5033923;28;20053;-78
2021/09/10 09:45:26;;;;;;;7.22;5.03;;;24.80;99.90;;;;;;5033172;28;20049;-78
2021/09/10 09:48:00;;;;;;;8.38;5.72;;;24.60;99.90;;;;;;5032925;28;20053;-75
2021/09/10 09:53:17;;;;;;;9.25;6.00;;;24.40;99.90;;;;;;5028982;28;20049;-76
2021/09/10 09:55:49;;;;;;;10.45;6.53;;;24.20;99.90;;;;;;5032460;28;20103;-77
2021/09/10 09:58:17;;;;;;;9.43;6.32;;;24.10;99.90;;;;;;5032574;28;20092;-77
2021/09/10 10:00:47;;;;;;;9.15;6.05;;;24.00;99.90;;;;;;5032124;28;20059;-77
2021/09/10 10:03:14;;;;;;;9.98;6.20;;;23.80;99.90;;;;;;5032407;28;20132;-76
2021/09/10 10:05:55;;;;;;;7.78;5.10;;;23.80;99.90;;;;;;5032172;28;20052;-75
2021/09/10 10:08:26;;;;;;;7.28;5.10;;;23.80;99.90;;;;;;5032810;28;20555;-78
2021/09/10 10:10:58;;;;;;;8.07;5.10;;;23.80;99.90;;;;;;5032524;28;20503;-76
2021/09/10 10:13:29;;;;;;;6.20;5.60;;;23.90;99.90;;;;;;5032283;28;20498;-75
2021/09/10 10:15:56;;;;;;;5.53;4.90;;;23.90;99.90;;;;;;5032041;28;20042;-76
2021/09/10 10:18:40;;;;;;;5.82;4.65;;;24.10;99.90;;;;;;5032109;28;20136;-77
2021/09/10 10:21:07;;;;;;;9.77;5.00;;;24.30;99.90;;;;;;5030944;28;20049;-77
2021/09/10 10:23:55;;;;;;;6.85;5.03;;;24.30;99.90;;;;;;5031689;28;20045;-77
2021/09/10 10:26:42;;;;;;;8.23;5.35;;;24.40;99.90;;;;;;5031366;28;20049;-77
2021/09/10 10:29:19;;;;;;;6.95;5.20;;;24.40;99.90;;;;;;5032083;28;20053;-77
2021/09/10 10:32:07;;;;;;;6.55;4.90;;;24.50;99.90;;;;;;5031701;28;20482;-77
2021/09/10 10:34:36;;;;;;;25.38;5.03;;;24.60;99.90;;;;;;5032049;28;20057;-76
2021/09/10 10:37:23;;;;;;;7.40;4.55;;;24.60;99.90;;;;;;5031464;28;20095;-77
2021/09/10 10:40:30;;;;;;;6.05;4.22;;;24.60;99.90;;;;;;5032121;28;20464;-79
2021/09/10 10:43:00;;;;;;;5.53;3.80;;;24.50;99.90;;;;;;5031588;28;20076;-76
2021/09/10 10:45:59;;;;;;;5.20;3.60;;;24.30;99.90;;;;;;5032075;28;20046;-75
2021/09/10 10:48:49;;;;;;;8.32;3.60;;;24.20;99.90;;;;;;5031519;28;20495;-76
2021/09/10 10:51:38;;;;;;;5.70;3.80;;;24.20;99.90;;;;;;5031465;28;20535;-77
2021/09/10 10:54:29;;;;;;;6.75;4.22;;;24.30;99.90;;;;;;5032465;28;20052;-77
2021/09/10 10:56:58;;;;;;;11.73;5.45;;;24.30;99.90;;;;;;5026774;28;20047;-77
2021/09/10 10:59:33;;;;;;;10.18;5.97;;;24.30;99.90;;;;;;5031116;28;20057;-77
2021/09/10 11:02:37;;;;;;;8.05;5.00;;;24.40;99.90;;;;;;5031119;28;20084;-77
2021/09/10 11:05:20;;;;;;;9.40;4.47;;;24.40;99.90;;;;;;5031790;28;20050;-77
2021/09/10 11:07:47;;;;;;;10.07;4.70;;;24.40;99.90;;;;;;5031327;28;20056;-77
2021/09/10 11:10:16;;;;;;;6.25;4.32;;;24.40;99.90;;;;;;5031434;28;20526;-77
2021/09/10 11:12:44;;;;;;;5.93;3.85;;;24.50;99.90;;;;;;5031501;28;20050;-77
2021/09/10 11:15:25;;;;;;;6.13;4.68;;;24.60;99.90;;;;;;5031476;28;20136;-77
2021/09/10 11:17:54;;;;;;;8.95;4.50;;;24.60;99.90;;;;;;5031271;28;20129;-77
2021/09/10 11:20:27;;;;;;;7.82;4.75;;;24.60;99.90;;;;;;5031012;28;20141;-76
2021/09/10 11:22:55;;;;;;;7.03;4.93;;;24.70;99.90;;;;;;5031406;28;20148;-77
2021/09/10 11:25:22;;;;;;;9.43;5.38;;;24.80;99.90;;;;;;5031883;28;20136;-77
2021/09/10 11:27:49;;;;;;;8.43;5.40;;;24.80;99.90;;;;;;5031100;28;20132;-76
2021/09/10 11:30:16;;;;;;;8.63;5.50;;;24.70;99.90;;;;;;5030916;28;20050;-76
2021/09/10 11:32:46;;;;;;;9.05;6.05;;;24.60;99.90;;;;;;5031349;28;20136;-76
2021/09/10 11:35:21;;;;;;;11.02;5.60;;;24.60;99.90;;;;;;5031493;28;20490;-77
2021/09/10 11:37:54;;;;;;;10.93;6.10;;;24.70;99.90;;;;;;5031124;28;20424;-76
2021/09/10 11:40:36;;;;;;;9.70;5.55;;;24.90;99.90;;;;;;5031021;28;20154;-76
2021/09/10 11:43:11;;;;;;;10.70;5.78;;;25.20;99.90;;;;;;5030978;28;20499;-76
2021/09/10 11:45:40;;;;;;;9.60;5.80;;;25.30;99.90;;;;;;5031003;28;20143;-77
2021/09/10 11:48:10;;;;;;;10.00;5.60;;;25.50;99.90;;;;;;5031079;28;20080;-77
2021/09/10 11:50:54;;;;;;;10.68;5.78;;;25.80;99.90;;;;;;5030971;28;20103;-76
2021/09/10 11:53:27;;;;;;;8.18;5.05;;;25.90;99.90;;;;;;5030960;28;20564;-78
2021/09/10 11:55:56;;;;;;;8.05;5.10;;;26.10;99.90;;;;;;5031176;28;20473;-78
2021/09/10 11:58:40;;;;;;;5.63;4.75;;;26.20;99.90;;;;;;5031292;28;20147;-77
2021/09/10 12:01:19;;;;;;;5.05;4.55;;;26.20;99.90;;;;;;5029948;28;20045;-78
2021/09/10 12:03:48;;;;;;;4.65;4.07;;;26.30;99.90;;;;;;5030779;28;20522;-78
2021/09/10 12:06:18;;;;;;;5.72;4.40;;;26.30;99.90;;;;;;5034704;28;20132;-78
2021/09/10 12:09:10;;;;;;;5.00;4.25;;;26.30;99.90;;;;;;5035180;28;20443;-78
2021/09/10 12:11:37;;;;;;;4.85;4.32;;;26.30;99.90;;;;;;5034720;28;20407;-76
2021/09/10 12:14:14;;;;;;;7.20;4.78;;;26.30;99.90;;;;;;5034899;28;20049;-75
2021/09/10 12:16:41;;;;;;;6.85;5.13;;;26.30;99.90;;;;;;5034821;28;20041;-77
2021/09/10 12:19:11;;;;;;;11.55;5.18;;;26.30;99.90;;;;;;5034529;28;20474;-77
2021/09/10 12:21:38;;;;;;;7.18;5.10;;;26.40;99.90;;;;;;5034182;28;20500;-77
2021/09/10 12:24:11;;;;;;;9.43;4.93;;;26.40;99.90;;;;;;5034285;28;20060;-77
2021/09/10 12:26:48;;;;;;;6.45;5.18;;;26.50;99.90;;;;;;5034506;28;20049;-78
2021/09/10 12:29:21;;;;;;;9.05;5.28;;;26.60;99.90;;;;;;5034548;28;20049;-77
2021/09/10 12:31:47;;;;;;;6.88;5.40;;;26.50;99.90;;;;;;5034342;28;20053;-77
2021/09/10 12:34:14;;;;;;;6.68;5.18;;;26.30;99.90;;;;;;5034229;28;20141;-77
2021/09/10 12:36:41;;;;;;;7.03;4.20;;;26.30;99.90;;;;;;5034144;28;20559;-77
2021/09/10 12:39:09;;;;;;;6.22;2.92;;;26.20;99.90;;;;;;5034230;28;20519;-76
2021/09/10 12:41:37;;;;;;;4.30;3.30;;;25.80;99.90;;;;;;5033714;28;20148;-77
2021/09/10 12:44:08;;;;;;;6.70;3.20;;;25.40;99.90;;;;;;5034159;28;20141;-77
2021/09/10 12:46:36;;;;;;;8.07;3.90;;;25.10;99.90;;;;;;5034261;28;20060;-77
2021/09/10 12:49:03;;;;;;;6.15;4.25;;;24.60;99.90;;;;;;5033861;28;20595;-78
2021/09/10 12:51:29;;;;;;;5.15;3.67;;;24.20;99.90;;;;;;5033798;28;20049;-78
2021/09/10 12:53:56;;;;;;;7.90;3.75;;;24.20;99.90;;;;;;5033940;28;20080;-77
2021/09/10 12:56:25;;;;;;;6.20;3.92;;;24.40;99.90;;;;;;5033554;28;20045;-77
2021/09/10 12:58:52;;;;;;;4.60;3.60;;;24.70;99.90;;;;;;5033938;28;20136;-78
2021/09/10 13:01:19;;;;;;;8.18;4.22;;;25.00;99.90;;;;;;5033637;28;20080;-78
2021/09/10 13:03:47;;;;;;;6.85;3.80;;;25.30;99.90;;;;;;5033637;28;20558;-77
2021/09/10 13:06:14;;;;;;;7.47;4.30;;;25.50;99.90;;;;;;5033792;28;20605;-77
2021/09/10 13:08:41;;;;;;;6.07;4.13;;;25.70;99.90;;;;;;5033761;28;20124;-77